Time;durP1;ratioP1;P1;durP2;ratioP2;P2;SDS_P1;SDS_P2;PMS_P1;PMS_P2;Temp;Humidity;BMP_temperature;BMP_pressure;BME280_temperature;BME280_humidity;BME280_pressure;Samples;Min_cycle;Max_cycle;Signal;HPM_P1;HPM_P2
2022/09/23 00:02:09;;;;;;;2.35;0.60;;;;;;;;;;10385238;28;20042;-63
2022/09/23 00:07:12;;;;;;;4.20;0.90;;;;;;;;;;10382690;28;20461;-62
2022/09/23 00:12:14;;;;;;;2.42;0.70;;;;;;;;;;10374458;28;20103;-63
2022/09/23 00:17:16;;;;;;;3.83;0.80;;;;;;;;;;10386785;28;20107;-62
2022/09/23 00:22:18;;;;;;;5.00;0.95;;;;;;;;;;10384092;28;20053;-62
2022/09/23 00:27:20;;;;;;;2.15;0.88;;;;;;;;;;10387212;28;20049;-62
2022/09/23 00:32:23;;;;;;;2.28;0.85;;;;;;;;;;10387152;28;20129;-62
2022/09/23 00:37:27;;;;;;;1.20;0.60;;;;;;;;;;10381633;28;20045;-63
2022/09/23 00:42:29;;;;;;;2.85;0.65;;;;;;;;;;10373580;28;20115;-63
2022/09/23 00:47:47;;;;;;;1.70;0.82;;;;;;;;;;10382979;28;20136;-62
2022/09/23 00:52:49;;;;;;;;;;;;;;;;;;10367929;28;20083;-62
2022/09/23 00:57:53;;;;;;;4.10;0.85;;;;;;;;;;10377737;28;20259;-60
2022/09/23 01:02:55;;;;;;;2.20;0.95;;;;;;;;;;10388093;28;20049;-62
2022/09/23 01:07:58;;;;;;;3.45;0.70;;;;;;;;;;10384547;28;20128;-63
2022/09/23 01:13:10;;;;;;;1.95;0.90;;;;;;;;;;10379125;28;20050;-62
2022/09/23 01:18:18;;;;;;;3.03;1.00;;;;;;;;;;10383836;28;20092;-62
2022/09/23 01:23:40;;;;;;;1.83;1.08;;;;;;;;;;10385803;28;20513;-62
2022/09/23 01:28:42;;;;;;;4.90;1.00;;;;;;;;;;10375884;28;20062;-62
2022/09/23 01:33:52;;;;;;;3.47;1.00;;;;;;;;;;10383433;28;20140;-61
2022/09/23 01:39:00;;;;;;;4.30;0.85;;;;;;;;;;10383812;28;20117;-62
2022/09/23 01:44:08;;;;;;;6.35;1.40;;;;;;;;;;10378253;28;20053;-61
2022/09/23 01:49:10;;;;;;;4.93;0.82;;;;;;;;;;10375071;28;20124;-61
2022/09/23 01:54:21;;;;;;;4.45;1.00;;;;;;;;;;10382066;28;20961;-62
2022/09/23 01:59:28;;;;;;;1.33;0.77;;;;;;;;;;10381355;28;20077;-62
2022/09/23 02:04:33;;;;;;;1.63;0.80;;;;;;;;;;10383399;28;20716;-61
2022/09/23 02:09:39;;;;;;;2.53;1.30;;;;;;;;;;10384816;28;20105;-61
2022/09/23 02:14:48;;;;;;;3.70;1.40;;;;;;;;;;10384808;28;20410;-60
2022/09/23 02:19:53;;;;;;;5.13;1.58;;;;;;;;;;10383592;28;20041;-61
2022/09/23 02:24:57;;;;;;;2.38;1.00;;;;;;;;;;10385423;28;20049;-61
2022/09/23 02:30:13;;;;;;;1.73;0.90;;;;;;;;;;10383066;28;20045;-61
2022/09/23 02:35:31;;;;;;;4.20;1.10;;;;;;;;;;10378383;28;20056;-63
2022/09/23 02:40:54;;;;;;;5.82;1.25;;;;;;;;;;10379149;28;20060;-62
2022/09/23 02:45:56;;;;;;;1.20;0.80;;;;;;;;;;10374197;28;20080;-61
2022/09/23 02:51:01;;;;;;;2.22;1.02;;;;;;;;;;10383217;28;20053;-63
2022/09/23 02:56:13;;;;;;;1.27;0.95;;;;;;;;;;10380807;28;20057;-61
2022/09/23 03:01:16;;;;;;;1.95;0.85;;;;;;;;;;10382525;28;20428;-61
2022/09/23 03:06:18;;;;;;;5.35;1.00;;;;;;;;;;10377995;28;20065;-62
2022/09/23 03:11:21;;;;;;;3.33;0.75;;;;;;;;;;10379094;28;20287;-61
2022/09/23 03:16:29;;;;;;;2.90;0.80;;;;;;;;;;10381823;28;20042;-62
2022/09/23 03:21:33;;;;;;;1.60;0.70;;;;;;;;;;10376004;28;20057;-62
2022/09/23 03:26:37;;;;;;;1.85;1.02;;;;;;;;;;10378294;28;20567;-62
2022/09/23 03:31:41;;;;;;;1.58;1.00;;;;;;;;;;10389449;28;20125;-62
2022/09/23 03:36:50;;;;;;;5.47;0.93;;;;;;;;;;10386706;28;20237;-64
2022/09/23 03:41:54;;;;;;;2.72;1.50;;;;;;;;;;10374285;28;20057;-64
2022/09/23 03:47:02;;;;;;;1.60;0.93;;;;;;;;;;10384880;28;20053;-65
2022/09/23 03:52:05;;;;;;;3.70;1.02;;;;;;;;;;10393607;28;20667;-65
2022/09/23 03:57:07;;;;;;;1.40;1.10;;;;;;;;;;10387035;28;20136;-64
2022/09/23 04:02:10;;;;;;;4.13;2.05;;;;;;;;;;10387519;28;20133;-64
2022/09/23 04:07:13;;;;;;;2.05;0.82;;;;;;;;;;10381149;28;20061;-65
2022/09/23 04:12:15;;;;;;;3.83;1.05;;;;;;;;;;10371553;28;20046;-67
2022/09/23 04:17:18;;;;;;;2.17;1.15;;;;;;;;;;10382924;28;20057;-65
2022/09/23 04:22:21;;;;;;;1.85;1.00;;;;;;;;;;10390417;28;20087;-66
2022/09/23 04:27:23;;;;;;;2.60;1.33;;;;;;;;;;10384274;28;20049;-65
2022/09/23 04:32:25;;;;;;;1.92;0.98;;;;;;;;;;10378648;28;20131;-64
2022/09/23 04:37:28;;;;;;;5.32;1.02;;;;;;;;;;10385747;28;20459;-65
2022/09/23 04:42:30;;;;;;;2.75;1.42;;;;;;;;;;10381359;28;20204;-65
2022/09/23 04:47:32;;;;;;;2.65;1.50;;;;;;;;;;10388863;28;20085;-65
2022/09/23 04:52:34;;;;;;;1.63;0.82;;;;;;;;;;10386446;28;20092;-65
2022/09/23 04:57:37;;;;;;;2.42;1.15;;;;;;;;;;10386857;28;20049;-64
2022/09/23 05:02:43;;;;;;;8.30;1.42;;;;;;;;;;10383890;28;20081;-65
2022/09/23 05:07:45;;;;;;;3.00;1.38;;;;;;;;;;10379646;28;20149;-64
2022/09/23 05:12:48;;;;;;;4.55;1.38;;;;;;;;;;10382558;28;20514;-71
2022/09/23 05:17:58;;;;;;;2.53;1.23;;;;;;;;;;10383604;28;20081;-70
2022/09/23 05:23:00;;;;;;;2.28;1.17;;;;;;;;;;10380381;28;20480;-70
2022/09/23 05:28:03;;;;;;;2.05;1.30;;;;;;;;;;10385521;28;20547;-71
2022/09/23 05:33:06;;;;;;;2.13;0.90;;;;;;;;;;10368134;28;20487;-70
2022/09/23 05:38:08;;;;;;;6.70;1.20;;;;;;;;;;10383848;28;20136;-71
2022/09/23 05:43:10;;;;;;;1.90;1.00;;;;;;;;;;10385396;28;20061;-69
2022/09/23 05:48:12;;;;;;;2.30;1.20;;;;;;;;;;10387806;28;20587;-71
2022/09/23 05:53:14;;;;;;;3.00;1.80;;;;;;;;;;10381137;28;20583;-70
2022/09/23 05:58:17;;;;;;;1.92;1.30;;;;;;;;;;10387131;28;20519;-71
2022/09/23 06:03:19;;;;;;;4.20;1.27;;;;;;;;;;10378495;28;20729;-71
2022/09/23 06:08:22;;;;;;;2.85;1.35;;;;;;;;;;10377994;28;20059;-70
2022/09/23 06:13:25;;;;;;;4.43;1.38;;;;;;;;;;10370539;28;20496;-72
2022/09/23 06:18:27;;;;;;;1.90;1.08;;;;;;;;;;10380234;28;20498;-71
2022/09/23 06:23:30;;;;;;;3.47;1.40;;;;;;;;;;10381022;28;20083;-72
2022/09/23 06:28:33;;;;;;;3.22;1.27;;;;;;;;;;10379712;28;20135;-71
2022/09/23 06:33:35;;;;;;;1.85;1.40;;;;;;;;;;10381668;28;20052;-72
2022/09/23 06:38:39;;;;;;;4.30;1.50;;;;;;;;;;10375701;28;20667;-71
2022/09/23 06:43:41;;;;;;;3.70;1.42;;;;;;;;;;10381925;28;20140;-70
2022/09/23 06:48:43;;;;;;;2.58;1.50;;;;;;;;;;10380262;28;20061;-69
2022/09/23 06:53:48;;;;;;;3.08;1.40;;;;;;;;;;10378983;28;20242;-71
2022/09/23 06:58:51;;;;;;;3.40;1.23;;;;;;;;;;10376046;28;20063;-71
2022/09/23 07:03:53;;;;;;;3.40;1.08;;;;;;;;;;10389065;28;20047;-71
2022/09/23 07:08:55;;;;;;;5.18;1.23;;;;;;;;;;10386825;28;20042;-70
2022/09/23 07:13:57;;;;;;;1.63;1.02;;;;;;;;;;10389087;28;20047;-71
2022/09/23 07:18:59;;;;;;;7.03;1.20;;;;;;;;;;10385398;28;20506;-68
2022/09/23 07:24:02;;;;;;;4.32;1.35;;;;;;;;;;10383329;28;20128;-70
2022/09/23 07:29:05;;;;;;;3.30;1.35;;;;;;;;;;10389755;28;20399;-70
2022/09/23 07:34:10;;;;;;;2.75;1.40;;;;;;;;;;10386852;28;20081;-70
2022/09/23 07:39:12;;;;;;;2.95;1.60;;;;;;;;;;10383882;28;20057;-70
2022/09/23 07:44:15;;;;;;;3.20;1.70;;;;;;;;;;10387030;28;20566;-67
2022/09/23 07:49:17;;;;;;;2.78;1.20;;;;;;;;;;10385187;28;20069;-72
2022/09/23 07:54:19;;;;;;;2.88;1.17;;;;;;;;;;10389676;28;20089;-69
2022/09/23 07:59:22;;;;;;;2.90;1.63;;;;;;;;;;10392292;28;20053;-70
2022/09/23 08:04:27;;;;;;;3.10;1.25;;;;;;;;;;10384681;28;20126;-70
2022/09/23 08:09:31;;;;;;;1.23;0.90;;;;;;;;;;10387231;28;20045;-70
2022/09/23 08:14:33;;;;;;;4.45;0.98;;;;;;;;;;10381004;28;20046;-70
2022/09/23 08:19:35;;;;;;;2.25;0.95;;;;;;;;;;10384483;28;20072;-70
2022/09/23 08:24:37;;;;;;;3.30;1.23;;;;;;;;;;10380827;28;20121;-70
2022/09/23 08:29:39;;;;;;;2.13;1.42;;;;;;;;;;10379503;28;20051;-70
2022/09/23 08:34:41;;;;;;;2.08;1.02;;;;;;;;;;10383886;28;20557;-70
2022/09/23 08:39:43;;;;;;;2.67;1.55;;;;;;;;;;10376739;28;20144;-70
2022/09/23 08:44:50;;;;;;;2.03;0.88;;;;;;;;;;10378835;28;20137;-71
2022/09/23 08:50:02;;;;;;;2.03;1.20;;;;;;;;;;10386375;28;20049;-70
2022/09/23 08:55:05;;;;;;;2.30;1.40;;;;;;;;;;10385730;28;20120;-72
2022/09/23 09:00:14;;;;;;;3.00;1.13;;;;;;;;;;10387728;28;20522;-70
2022/09/23 09:05:20;;;;;;;2.00;1.00;;;;;;;;;;10376857;28;20057;-70
2022/09/23 09:10:23;;;;;;;1.73;1.20;;;;;;;;;;10384455;28;20053;-71
2022/09/23 09:15:26;;;;;;;3.45;1.30;;;;;;;;;;10382024;28;20076;-71
2022/09/23 09:20:38;;;;;;;3.25;1.15;;;;;;;;;;10382126;28;20053;-71
2022/09/23 09:25:50;;;;;;;2.33;1.50;;;;;;;;;;10382272;28;20128;-71
2022/09/23 09:30:57;;;;;;;2.45;1.15;;;;;;;;;;10384894;28;20136;-73
2022/09/23 09:36:07;;;;;;;5.07;1.40;;;;;;;;;;10386478;28;20131;-73
2022/09/23 09:41:14;;;;;;;5.38;1.10;;;;;;;;;;10376748;28;20746;-72
2022/09/23 09:46:43;;;;;;;3.10;1.20;;;;;;;;;;10379604;28;20053;-69
2022/09/23 09:51:46;;;;;;;4.57;1.25;;;;;;;;;;10356829;28;20084;-71
2022/09/23 09:56:49;;;;;;;2.63;1.15;;;;;;;;;;10386689;28;20105;-72
2022/09/23 10:02:11;;;;;;;2.05;1.20;;;;;;;;;;10378192;28;20124;-72
2022/09/23 10:07:14;;;;;;;4.03;1.40;;;;;;;;;;10378345;28;20081;-73
2022/09/23 10:12:17;;;;;;;2.47;1.25;;;;;;;;;;10380637;28;20149;-72
2022/09/23 10:17:38;;;;;;;5.70;1.27;;;;;;;;;;10383674;28;20439;-73
2022/09/23 10:22:41;;;;;;;1.92;1.30;;;;;;;;;;10382971;28;20033;-72
2022/09/23 10:27:44;;;;;;;3.60;1.20;;;;;;;;;;10374014;28;20065;-71
2022/09/23 10:32:46;;;;;;;1.60;1.15;;;;;;;;;;10380409;28;20061;-72
2022/09/23 10:37:55;;;;;;;1.83;0.88;;;;;;;;;;10378672;28;20056;-71
2022/09/23 10:48:55;;;;;;;1.45;0.90;;;;;;;;;;10372658;28;20045;-71
2022/09/23 10:54:05;;;;;;;2.40;1.10;;;;;;;;;;10362089;28;20108;-71
2022/09/23 10:59:13;;;;;;;4.72;1.00;;;;;;;;;;10388297;28;20519;-71
2022/09/23 11:04:27;;;;;;;5.88;0.90;;;;;;;;;;10382073;28;20037;-70
2022/09/23 11:09:39;;;;;;;1.40;0.93;;;;;;;;;;10381872;28;20050;-71
2022/09/23 11:14:50;;;;;;;2.92;0.95;;;;;;;;;;10388841;28;20073;-72
2022/09/23 11:20:20;;;;;;;2.67;1.20;;;;;;;;;;10369296;28;20041;-71
2022/09/23 11:25:41;;;;;;;2.00;0.70;;;;;;;;;;10376167;28;20583;-71
2022/09/23 11:30:56;;;;;;;1.20;0.63;;;;;;;;;;10375379;28;20120;-72
2022/09/23 11:36:01;;;;;;;1.23;0.60;;;;;;;;;;10377472;28;20054;-72
2022/09/23 11:41:16;;;;;;;2.35;0.80;;;;;;;;;;10377156;28;20309;-71
2022/09/23 11:46:31;;;;;;;1.20;0.57;;;;;;;;;;10393383;28;20042;-74
2022/09/23 11:51:38;;;;;;;7.07;0.75;;;;;;;;;;10388349;28;20443;-71
2022/09/23 11:56:47;;;;;;;0.85;0.52;;;;;;;;;;10385380;28;20531;-71
2022/09/23 12:02:02;;;;;;;1.48;0.60;;;;;;;;;;10387540;28;20119;-69
2022/09/23 12:07:22;;;;;;;2.97;0.60;;;;;;;;;;10387927;28;20041;-72
2022/09/23 12:12:24;;;;;;;1.45;0.57;;;;;;;;;;10389919;28;20046;-72
2022/09/23 12:17:46;;;;;;;1.02;0.38;;;;;;;;;;10387918;28;20135;-72
2022/09/23 12:22:56;;;;;;;2.45;0.50;;;;;;;;;;10385311;28;20049;-70
2022/09/23 12:28:09;;;;;;;1.77;0.70;;;;;;;;;;10399798;28;20488;-73
2022/09/23 12:33:20;;;;;;;0.65;0.30;;;;;;;;;;10383703;28;20073;-71
2022/09/23 12:38:24;;;;;;;3.33;1.08;;;;;;;;;;10379234;28;20575;-74
2022/09/23 12:43:34;;;;;;;1.10;0.50;;;;;;;;;;10385738;28;20057;-70
2022/09/23 12:48:43;;;;;;;1.40;0.50;;;;;;;;;;10395323;28;20076;-71
2022/09/23 12:53:49;;;;;;;0.35;0.35;;;;;;;;;;10381743;28;20095;-72
2022/09/23 12:58:57;;;;;;;1.37;0.50;;;;;;;;;;10388265;28;20128;-72
2022/09/23 13:09:26;;;;;;;0.95;0.50;;;;;;;;;;10384569;28;20057;-71
2022/09/23 13:14:29;;;;;;;4.20;0.88;;;;;;;;;;10384675;28;20046;-73
2022/09/23 13:19:31;;;;;;;3.38;0.75;;;;;;;;;;10378521;28;20060;-70
2022/09/23 13:24:43;;;;;;;1.35;0.43;;;;;;;;;;10381683;28;20054;-71
2022/09/23 13:29:48;;;;;;;2.42;0.50;;;;;;;;;;10384876;28;20045;-71
2022/09/23 13:34:56;;;;;;;2.55;0.50;;;;;;;;;;10384278;28;20049;-71
2022/09/23 13:40:09;;;;;;;2.25;0.43;;;;;;;;;;10382410;28;20048;-71
2022/09/23 13:45:14;;;;;;;2.55;0.30;;;;;;;;;;10375108;28;20118;-70
2022/09/23 13:50:20;;;;;;;1.00;0.40;;;;;;;;;;10387350;28;20484;-70
2022/09/23 13:55:22;;;;;;;;;;;;;;;;;;10382893;28;20662;-70
2022/09/23 14:00:25;;;;;;;1.48;0.40;;;;;;;;;;10381195;28;20397;-70
2022/09/23 14:05:32;;;;;;;0.85;0.50;;;;;;;;;;10381346;28;20086;-71
2022/09/23 14:10:34;;;;;;;1.13;0.40;;;;;;;;;;10385559;28;20397;-69
2022/09/23 14:15:36;;;;;;;6.50;1.23;;;;;;;;;;10384957;28;20081;-70
2022/09/23 14:20:45;;;;;;;1.48;0.50;;;;;;;;;;10387229;28;20124;-70
2022/09/23 14:25:48;;;;;;;0.90;0.43;;;;;;;;;;10383020;28;20057;-70
2022/09/23 14:30:51;;;;;;;5.28;0.63;;;;;;;;;;10382972;28;20120;-70
2022/09/23 14:35:55;;;;;;;0.98;0.45;;;;;;;;;;10381398;28;20459;-70
2022/09/23 14:41:17;;;;;;;2.22;0.43;;;;;;;;;;10383095;28;20550;-70
2022/09/23 14:46:20;;;;;;;0.82;0.40;;;;;;;;;;10378095;28;20131;-72
2022/09/23 14:51:28;;;;;;;2.60;0.40;;;;;;;;;;10381326;28;20045;-70
2022/09/23 14:56:40;;;;;;;3.92;0.35;;;;;;;;;;10378301;28;20085;-68
2022/09/23 15:01:42;;;;;;;1.95;0.63;;;;;;;;;;10373550;28;20111;-69
2022/09/23 15:06:46;;;;;;;1.98;0.40;;;;;;;;;;10377100;28;20478;-68
2022/09/23 15:12:04;;;;;;;0.93;0.52;;;;;;;;;;10395843;28;20061;-68
2022/09/23 15:17:36;;;;;;;2.40;1.02;;;;;;;;;;10392333;28;20464;-68
2022/09/23 15:22:47;;;;;;;1.52;0.57;;;;;;;;;;10370557;28;20437;-69
2022/09/23 15:28:16;;;;;;;3.08;0.70;;;;;;;;;;10388473;28;20045;-68
2022/09/23 15:33:19;;;;;;;3.25;0.60;;;;;;;;;;10387726;28;20184;-68
2022/09/23 15:38:21;;;;;;;0.98;0.50;;;;;;;;;;10389419;28;20456;-68
2022/09/23 15:43:25;;;;;;;1.65;0.57;;;;;;;;;;10388787;28;20072;-69
2022/09/23 15:48:31;;;;;;;0.85;0.45;;;;;;;;;;10389662;28;20085;-68
2022/09/23 15:53:33;;;;;;;2.30;0.50;;;;;;;;;;10387536;28;20137;-69
2022/09/23 15:58:35;;;;;;;3.22;0.68;;;;;;;;;;10392579;28;20080;-69
2022/09/23 16:03:38;;;;;;;2.55;0.70;;;;;;;;;;10390723;28;20071;-68
2022/09/23 16:08:41;;;;;;;6.45;2.05;;;;;;;;;;10389860;28;20128;-69
2022/09/23 16:13:43;;;;;;;9.05;1.63;;;;;;;;;;10385434;28;20123;-69
2022/09/23 16:18:46;;;;;;;5.68;1.63;;;;;;;;;;10388625;28;20148;-68
2022/09/23 16:23:50;;;;;;;6.78;1.45;;;;;;;;;;10389185;28;20051;-68
2022/09/23 16:28:54;;;;;;;1.67;0.70;;;;;;;;;;10386717;28;20093;-69
2022/09/23 16:33:56;;;;;;;2.03;0.80;;;;;;;;;;10386613;28;20129;-70
2022/09/23 16:38:59;;;;;;;1.13;0.60;;;;;;;;;;10399870;28;20129;-68
2022/09/23 16:44:03;;;;;;;1.48;0.90;;;;;;;;;;10344963;28;20612;-69
2022/09/23 16:49:05;;;;;;;0.90;0.63;;;;;;;;;;10343371;28;20500;-69
2022/09/23 16:54:10;;;;;;;2.88;0.65;;;;;;;;;;10345401;28;20058;-68
2022/09/23 16:59:15;;;;;;;8.32;0.88;;;;;;;;;;10337943;28;20171;-68
2022/09/23 17:04:18;;;;;;;2.70;0.70;;;;;;;;;;10349281;28;20053;-69
2022/09/23 17:09:21;;;;;;;2.53;0.90;;;;;;;;;;10342897;28;20161;-69
2022/09/23 17:14:24;;;;;;;3.10;0.90;;;;;;;;;;10342643;28;20145;-69
2022/09/23 17:19:26;;;;;;;5.10;0.85;;;;;;;;;;10343420;28;20044;-69
2022/09/23 17:24:28;;;;;;;3.92;0.90;;;;;;;;;;10340903;28;20052;-69
2022/09/23 17:29:30;;;;;;;2.05;0.77;;;;;;;;;;10347040;28;20176;-69
2022/09/23 17:34:33;;;;;;;2.85;0.60;;;;;;;;;;10343368;28;20068;-68
2022/09/23 17:39:36;;;;;;;1.25;0.65;;;;;;;;;;10344590;28;20125;-69
2022/09/23 17:44:38;;;;;;;2.45;0.80;;;;;;;;;;10339495;28;20141;-68
2022/09/23 17:49:41;;;;;;;2.30;1.02;;;;;;;;;;10344982;28;20556;-68
2022/09/23 17:54:44;;;;;;;2.53;1.25;;;;;;;;;;10347006;28;20588;-68
2022/09/23 17:59:49;;;;;;;2.40;1.13;;;;;;;;;;10348144;28;20751;-68
2022/09/23 18:04:53;;;;;;;5.72;1.27;;;;;;;;;;10345114;28;20400;-68
2022/09/23 18:09:55;;;;;;;4.57;2.10;;;;;;;;;;10345757;28;20077;-68
2022/09/23 18:14:58;;;;;;;10.88;3.63;;;;;;;;;;10344850;28;20148;-68
2022/09/23 18:20:00;;;;;;;4.10;1.58;;;;;;;;;;10344549;28;20136;-68
2022/09/23 18:25:02;;;;;;;8.07;2.90;;;;;;;;;;10339700;28;20085;-69
2022/09/23 18:30:24;;;;;;;10.40;4.63;;;;;;;;;;10343871;28;20065;-69
2022/09/23 18:35:27;;;;;;;19.00;8.10;;;;;;;;;;10339833;28;20129;-68
2022/09/23 18:40:29;;;;;;;18.25;7.40;;;;;;;;;;10336457;28;20141;-68
2022/09/23 18:45:31;;;;;;;10.38;5.68;;;;;;;;;;10340313;28;20050;-68
2022/09/23 18:50:40;;;;;;;12.20;5.32;;;;;;;;;;10344652;28;20054;-69
2022/09/23 18:55:42;;;;;;;10.75;4.47;;;;;;;;;;10344082;28;20042;-68
2022/09/23 19:00:46;;;;;;;9.93;4.60;;;;;;;;;;10341990;28;20809;-68
2022/09/23 19:05:48;;;;;;;8.85;3.13;;;;;;;;;;10337570;28;20042;-68
2022/09/23 19:10:54;;;;;;;7.47;2.95;;;;;;;;;;10338146;28;20054;-68
2022/09/23 19:16:08;;;;;;;6.53;3.28;;;;;;;;;;10340440;28;20464;-68
2022/09/23 19:21:11;;;;;;;4.32;2.92;;;;;;;;;;10339459;28;20054;-68
2022/09/23 19:26:15;;;;;;;6.13;2.30;;;;;;;;;;10345229;28;20145;-68
2022/09/23 19:31:21;;;;;;;6.65;2.80;;;;;;;;;;10341163;28;20125;-69
2022/09/23 19:36:24;;;;;;;9.93;3.33;;;;;;;;;;10333342;28;20053;-69
2022/09/23 19:41:27;;;;;;;3.97;3.00;;;;;;;;;;10339860;28;20109;-69
2022/09/23 19:46:32;;;;;;;5.47;2.55;;;;;;;;;;10343894;28;20045;-68
2022/09/23 19:51:34;;;;;;;9.93;2.92;;;;;;;;;;10340612;28;20076;-69
2022/09/23 19:56:37;;;;;;;8.35;4.57;;;;;;;;;;10338248;28;20046;-68
2022/09/23 20:01:39;;;;;;;9.93;4.45;;;;;;;;;;10340445;28;20137;-69
2022/09/23 20:06:41;;;;;;;9.25;4.75;;;;;;;;;;10341801;28;20608;-70
2022/09/23 20:11:43;;;;;;;6.10;3.30;;;;;;;;;;10342180;28;20065;-69
2022/09/23 20:16:45;;;;;;;11.23;4.07;;;;;;;;;;10348504;28;20144;-69
2022/09/23 20:22:23;;;;;;;6.93;4.40;;;;;;;;;;10348722;28;20045;-69
2022/09/23 20:27:10;;;;;;;10.77;3.75;;;;;;;;;;10339775;28;20068;-69
2022/09/23 20:32:12;;;;;;;10.88;5.00;;;;;;;;;;10344744;28;20125;-69
2022/09/23 20:37:19;;;;;;;6.80;3.60;;;;;;;;;;10345643;28;20133;-69
2022/09/23 20:42:21;;;;;;;15.18;6.93;;;;;;;;;;10345560;28;20145;-69
2022/09/23 20:47:24;;;;;;;11.70;5.45;;;;;;;;;;10338771;28;20104;-70
2022/09/23 20:52:26;;;;;;;9.52;5.05;;;;;;;;;;10343993;28;20050;-69
2022/09/23 20:57:30;;;;;;;11.20;5.57;;;;;;;;;;10349039;28;20064;-66
2022/09/23 21:02:32;;;;;;;13.35;7.18;;;;;;;;;;10333801;28;20548;-67
2022/09/23 21:07:34;;;;;;;13.93;6.72;;;;;;;;;;10333621;28;20446;-66
2022/09/23 21:12:36;;;;;;;13.60;6.75;;;;;;;;;;10338415;28;20122;-67
2022/09/23 21:17:38;;;;;;;12.75;6.60;;;;;;;;;;10340673;28;20052;-66
2022/09/23 21:22:40;;;;;;;14.40;7.30;;;;;;;;;;10342763;28;20053;-60
2022/09/23 21:27:43;;;;;;;12.63;5.28;;;;;;;;;;10344038;28;20675;-61
2022/09/23 21:32:45;;;;;;;10.05;5.60;;;;;;;;;;10337792;28;20085;-60
2022/09/23 21:37:48;;;;;;;11.50;5.30;;;;;;;;;;10341535;28;20065;-60
2022/09/23 21:42:50;;;;;;;10.80;5.82;;;;;;;;;;10337413;28;20060;-61
2022/09/23 21:47:52;;;;;;;9.25;3.50;;;;;;;;;;10333198;28;20056;-60
2022/09/23 21:52:54;;;;;;;5.70;2.95;;;;;;;;;;10343791;28;20056;-59
2022/09/23 21:57:56;;;;;;;7.22;4.00;;;;;;;;;;10340666;28;20125;-60
2022/09/23 22:02:58;;;;;;;7.43;3.85;;;;;;;;;;10339547;28;20092;-60
2022/09/23 22:08:00;;;;;;;6.65;3.50;;;;;;;;;;10340075;28;20134;-61
2022/09/23 22:13:03;;;;;;;6.55;4.00;;;;;;;;;;10339294;28;20129;-59
2022/09/23 22:18:08;;;;;;;6.85;3.92;;;;;;;;;;10340502;28;20045;-61
2022/09/23 22:23:11;;;;;;;9.48;3.88;;;;;;;;;;10339088;28;20046;-61
2022/09/23 22:33:34;;;;;;;6.80;3.45;;;;;;;;;;10341441;28;20448;-61
2022/09/23 22:38:36;;;;;;;4.20;2.78;;;;;;;;;;10341049;28;20136;-61
2022/09/23 22:43:38;;;;;;;4.40;2.10;;;;;;;;;;10337442;28;20182;-62
2022/09/23 22:48:40;;;;;;;5.45;2.10;;;;;;;;;;10337869;28;20129;-60
2022/09/23 22:53:42;;;;;;;8.63;1.63;;;;;;;;;;10341095;28;20121;-62
2022/09/23 22:58:44;;;;;;;3.33;1.55;;;;;;;;;;10340467;28;20049;-62
2022/09/23 23:03:46;;;;;;;3.33;1.92;;;;;;;;;;10345460;28;22815;-60
2022/09/23 23:08:48;;;;;;;5.47;1.75;;;;;;;;;;10339829;28;20125;-60
2022/09/23 23:13:50;;;;;;;3.38;1.65;;;;;;;;;;10341226;28;20473;-60
2022/09/23 23:18:52;;;;;;;4.18;1.65;;;;;;;;;;10336673;28;20065;-60
2022/09/23 23:23:54;;;;;;;5.03;1.80;;;;;;;;;;10341520;28;20150;-60
2022/09/23 23:28:57;;;;;;;6.18;2.60;;;;;;;;;;10340163;28;20042;-59
2022/09/23 23:33:59;;;;;;;2.67;1.88;;;;;;;;;;10339723;28;20044;-60
2022/09/23 23:39:01;;;;;;;11.32;4.00;;;;;;;;;;10339938;28;20050;-62
2022/09/23 23:44:04;;;;;;;2.58;1.75;;;;;;;;;;10340644;28;20168;-59
2022/09/23 23:49:06;;;;;;;5.50;1.90;;;;;;;;;;10344837;28;20042;-58
2022/09/23 23:54:08;;;;;;;2.20;1.38;;;;;;;;;;10349250;28;20074;-59
2022/09/23 23:59:10;;;;;;;3.78;1.60;;;;;;;;;;10346396;28;20121;-59
